| time (UTC) | temp F | wind direction | speed knots | gust knots | rain 1hr in | rain 24hr in | rain mn in | humidity % | barometer mb |
| 20260510174707 | 36 | 304 | 0.0 | 8.7 | 0.00 | 0.02 | 0.02 | 64 | 1014.5 |
| 20260510173207 | 37 | 323 | 5.2 | 7.0 | 0.00 | 0.02 | 0.02 | 64 | 1014.0 |
| 20260510171707 | 36 | 12 | 2.6 | 9.6 | 0.00 | 0.02 | 0.02 | 71 | 1014.0 |
| 20260510170207 | 34 | 350 | 0.0 | 3.5 | 0.00 | 0.02 | 0.02 | 77 | 1014.2 |
| 20260510164707 | 37 | 288 | 2.6 | 8.7 | 0.01 | 0.02 | 0.02 | 69 | 1013.6 |
| 20260510163207 | 38 | 287 | 8.7 | 8.7 | 0.01 | 0.02 | 0.02 | 71 | 1013.6 |
| 20260510161707 | 36 | 302 | 5.2 | 8.7 | 0.01 | 0.02 | 0.02 | 73 | 1013.5 |
| 20260510160207 | 35 | 17 | 2.6 | 7.0 | 0.01 | 0.02 | 0.02 | 74 | 1013.2 |
| 20260510154707 | 36 | 5 | 2.6 | 8.7 | 0.02 | 0.02 | 0.02 | 74 | 1013.0 |
| 20260510153207 | 34 | 331 | 1.7 | 2.6 | 0.01 | 0.01 | 0.01 | 83 | 1012.9 |
| 20260510151707 | 32 | 323 | 3.5 | 7.8 | 0.01 | 0.01 | 0.01 | 87 | 1012.8 |
| 20260510150207 | 33 | 339 | 4.3 | 6.1 | 0.01 | 0.01 | 0.01 | 82 | 1012.5 |
| 20260510144707 | 33 | 332 | 3.5 | 6.1 | 0.00 | 0.00 | 0.00 | 87 | 1012.4 |
| 20260510143207 | 33 | 325 | 0.0 | 2.6 | 0.00 | 0.00 | 0.00 | 84 | 1012.2 |
| 20260510141707 | 33 | 331 | 0.0 | 7.8 | 0.00 | 0.00 | 0.00 | 85 | 1012.1 |
| 20260510140207 | 33 | 311 | 1.7 | 4.3 | 0.00 | 0.00 | 0.00 | 86 | 1011.8 |
| 20260510134707 | 32 | 325 | 1.7 | 4.3 | 0.00 | 0.00 | 0.00 | 88 | 1011.7 |
| 20260510133207 | 32 | 336 | 0.0 | 0.0 | 0.00 | 0.00 | 0.00 | 89 | 1011.4 |
| 20260510131707 | 32 | 339 | 0.0 | 8.7 | 0.00 | 0.00 | 0.00 | 90 | 1011.3 |
| 20260510130207 | 32 | 319 | 0.0 | 0.0 | 0.00 | 0.00 | 0.00 | 91 | 1011.3 |
| 20260510124707 | 32 | 329 | 0.9 | 7.8 | 0.00 | 0.00 | 0.00 | 91 | 1011.2 |
| 20260510123207 | 32 | 329 | 0.0 | 2.6 | 0.00 | 0.00 | 0.00 | 92 | 1010.7 |
| 20260510121707 | 32 | 330 | 0.0 | 3.5 | 0.00 | 0.00 | 0.00 | 93 | 1010.7 |
| 20260510120207 | 32 | 333 | 2.6 | 2.6 | 0.00 | 0.00 | 0.00 | 94 | 1010.3 |
| 20260510114707 | 31 | 333 | 0.0 | 5.2 | 0.00 | 0.00 | 0.00 | 94 | 1010.2 |
| 20260510113207 | 32 | 320 | 3.5 | 3.5 | 0.00 | 0.00 | 0.00 | 95 | 1010.1 |
| 20260510111707 | 31 | 319 | 0.9 | 3.5 | 0.00 | 0.00 | 0.00 | 95 | 1010.0 |
| 20260510110207 | 31 | 317 | 0.0 | 1.7 | 0.00 | 0.00 | 0.00 | 95 | 1009.6 |
| 20260510104707 | 31 | 317 | 0.0 | 2.6 | 0.00 | 0.00 | 0.00 | 95 | 1009.4 |
| 20260510103207 | 31 | 317 | 0.0 | 0.0 | 0.00 | 0.00 | 0.00 | 95 | 1009.1 |
| 20260510101707 | 31 | 319 | 0.0 | 3.5 | 0.00 | 0.00 | 0.00 | 95 | 1008.9 |
| 20260510100207 | 31 | 319 | 0.0 | 0.0 | 0.00 | 0.00 | 0.00 | 95 | 1008.8 |
| 20260510094707 | 31 | 319 | 2.6 | 3.5 | 0.00 | 0.00 | 0.00 | 95 | 1008.7 |
| 20260510093207 | 31 | 321 | 2.6 | 2.6 | 0.00 | 0.00 | 0.00 | 95 | 1008.4 |
| 20260510091707 | 31 | 314 | 0.0 | 3.5 | 0.00 | 0.00 | 0.00 | 95 | 1008.4 |
| 20260510090207 | 31 | 314 | 0.0 | 2.6 | 0.00 | 0.00 | 0.00 | 95 | 1008.1 |
| 20260510084707 | 31 | 313 | 0.0 | 3.5 | 0.00 | 0.00 | 0.00 | 95 | 1007.9 |
| 20260510083207 | 31 | 314 | 0.0 | 2.6 | 0.00 | 0.00 | 0.00 | 95 | 1007.8 |
| 20260510081706 | 31 | 314 | 0.0 | 2.6 | 0.00 | 0.00 | 0.00 | 94 | 1007.8 |
| 20260510080206 | 31 | 314 | 0.0 | 2.6 | 0.00 | 0.00 | 0.00 | 94 | 1007.5 |
| 20260510074706 | 31 | 314 | 0.0 | 3.5 | 0.00 | 0.00 | 0.00 | 94 | 1007.6 |
| 20260510073206 | 32 | 314 | 0.0 | 0.9 | 0.00 | 0.00 | 0.00 | 94 | 1007.5 |
| 20260510071706 | 32 | 314 | 0.0 | 3.5 | 0.00 | 0.00 | 0.00 | 94 | 1007.3 |
| 20260510070206 | 32 | 314 | 0.0 | 0.0 | 0.00 | 0.00 | 0.00 | 94 | 1007.2 |
| 20260510064706 | 32 | 314 | 2.6 | 2.6 | 0.00 | 0.00 | 0.00 | 94 | 1007.1 |
| 20260510063206 | 32 | 314 | 0.0 | 0.0 | 0.00 | 0.00 | 0.00 | 94 | 1007.1 |
| 20260510061706 | 32 | 314 | 0.0 | 2.6 | 0.00 | 0.00 | 0.00 | 95 | 1007.0 |
| 20260510060206 | 31 | 314 | 0.0 | 0.9 | 0.00 | 0.00 | 0.00 | 94 | 1006.8 |
| 20260510054706 | 31 | 314 | 0.0 | 0.9 | 0.00 | 0.00 | 0.00 | 100 | 1006.7 |
| 20260510053206 | 31 | 314 | 0.0 | 0.9 | 0.00 | 0.00 | 0.00 | 94 | 1006.5 |
| 20260510051706 | 32 | 314 | 0.0 | 1.7 | 0.00 | 0.00 | 0.00 | 94 | 1006.6 |
| 20260510050206 | 32 | 314 | 0.0 | 0.0 | 0.00 | 0.00 | 0.00 | 94 | 1006.5 |
| 20260510044706 | 31 | 317 | 0.0 | 3.5 | 0.00 | 0.00 | 0.00 | 94 | 1006.6 |
| 20260510043206 | 31 | 317 | 0.0 | 0.0 | 0.00 | 0.00 | 0.00 | 93 | 1006.3 |
| 20260510041706 | 32 | 317 | 0.0 | 2.6 | 0.00 | 0.00 | 0.00 | 93 | 1006.2 |
| 20260510040206 | 32 | 317 | 0.0 | 0.0 | 0.00 | 0.00 | 0.00 | 92 | 1006.1 |
| 20260510034706 | 33 | 317 | 1.7 | 6.1 | 0.00 | 0.00 | 0.00 | 92 | 1006.1 |
| 20260510033206 | 33 | 318 | 0.0 | 6.1 | 0.00 | 0.00 | 0.00 | 91 | 1005.9 |
| 20260510031706 | 33 | 317 | 0.0 | 6.1 | 0.00 | 0.00 | 0.00 | 90 | 1006.0 |
| 20260510030206 | 33 | 329 | 0.0 | 0.0 | 0.00 | 0.00 | 0.00 | 91 | 1005.9 |
| 20260510024706 | 33 | 329 | 0.0 | 2.6 | 0.00 | 0.00 | 0.00 | 91 | 1005.9 |
| 20260510023206 | 34 | 329 | 0.0 | 0.0 | 0.00 | 0.00 | 0.00 | 91 | 1005.9 |
| 20260510021706 | 34 | 333 | 0.0 | 3.5 | 0.00 | 0.00 | 0.00 | 91 | 1005.9 |
| 20260510020206 | 33 | 333 | 0.0 | 0.0 | 0.00 | 0.00 | 0.00 | 90 | 1005.6 |
| 20260510014706 | 34 | 336 | 0.0 | 7.0 | 0.00 | 0.00 | 0.00 | 89 | 1005.3 |
| 20260510013206 | 35 | 281 | 0.0 | 6.1 | 0.00 | 0.00 | 0.00 | 86 | 1005.1 |
| 20260510011706 | 34 | 302 | 0.0 | 0.9 | 0.00 | 0.00 | 0.00 | 88 | 1004.4 |
| 20260510010206 | 35 | 302 | 0.0 | 0.0 | 0.00 | 0.00 | 0.00 | 88 | 1004.1 |
| 20260510004706 | 35 | 302 | 0.0 | 1.7 | 0.00 | 0.00 | 0.00 | 87 | 1004.1 |
| 20260510003206 | 36 | 302 | 0.0 | 0.9 | 0.00 | 0.00 | 0.00 | 87 | 1004.0 |
| 20260510001706 | 37 | 348 | 4.3 | 13.0 | 0.00 | 0.00 | 0.00 | 80 | 1004.1 |
| 20260510000206 | 39 | 301 | 0.0 | 1.7 | 0.00 | 0.00 | 0.00 | 70 | 1003.5 |
| 20260509234706 | 39 | 348 | 0.0 | 6.1 | 0.00 | 0.00 | 0.00 | 74 | 1003.5 |
| 20260509233206 | 37 | 15 | 0.0 | 6.1 | 0.00 | 0.00 | 0.00 | 80 | 1003.5 |
| 20260509231706 | 38 | 355 | 9.6 | 12.2 | 0.00 | 0.00 | 0.00 | 74 | 1003.5 |
| 20260509230206 | 42 | 314 | 4.3 | 4.3 | 0.00 | 0.00 | 0.00 | 52 | 1002.5 |
| 20260509224706 | 43 | 306 | 0.0 | 9.6 | 0.00 | 0.00 | 0.00 | 52 | 1002.3 |
| 20260509223206 | 43 | 315 | 0.0 | 6.1 | 0.00 | 0.00 | 0.00 | 52 | 1002.3 |
| 20260509221706 | 42 | 306 | 1.7 | 9.6 | 0.00 | 0.00 | 0.00 | 54 | 1002.2 |
| 20260509220206 | 43 | 313 | 7.8 | 7.8 | 0.00 | 0.00 | 0.00 | 53 | 1002.2 |
| 20260509214706 | 42 | 296 | 0.0 | 13.9 | 0.00 | 0.00 | 0.00 | 55 | 1002.1 |
| 20260509213206 | 42 | 346 | 7.0 | 10.4 | 0.00 | 0.00 | 0.00 | 57 | 1001.8 |
| 20260509211706 | 41 | 15 | 7.0 | 9.6 | 0.00 | 0.00 | 0.00 | 57 | 1001.7 |
| 20260509210206 | 41 | 291 | 0.9 | 8.7 | 0.00 | 0.00 | 0.00 | 59 | 1001.6 |
| 20260509204706 | 40 | 348 | 7.0 | 10.4 | 0.00 | 0.00 | 0.00 | 59 | 1001.6 |
| 20260509203206 | 41 | 308 | 2.6 | 7.0 | 0.00 | 0.00 | 0.00 | 58 | 1001.0 |
| 20260509201706 | 40 | 336 | 0.0 | 9.6 | 0.00 | 0.00 | 0.00 | 61 | 1001.1 |
| 20260509200206 | 40 | 323 | 3.5 | 6.1 | 0.00 | 0.00 | 0.00 | 61 | 1001.0 |
| 20260509194706 | 41 | 294 | 0.0 | 9.6 | 0.00 | 0.00 | 0.00 | 60 | 1000.8 |
| 20260509193206 | 40 | 280 | 5.2 | 8.7 | 0.00 | 0.00 | 0.00 | 61 | 1000.5 |
| 20260509191706 | 42 | 307 | 5.2 | 9.6 | 0.00 | 0.00 | 0.00 | 56 | 1000.1 |
| 20260509190206 | 42 | 325 | 2.6 | 6.1 | 0.00 | 0.00 | 0.00 | 57 | 1000.0 |
| 20260509184706 | 39 | 347 | 2.6 | 10.4 | 0.00 | 0.00 | 0.00 | 62 | 1000.0 |
| 20260509183205 | 40 | 355 | 1.7 | 6.1 | 0.00 | 0.00 | 0.00 | 58 | 999.8 |
| 20260509181705 | 42 | 324 | 3.5 | 9.6 | 0.00 | 0.00 | 0.00 | 55 | 999.4 |
| 20260509180205 | 40 | 296 | 6.1 | 9.6 | 0.00 | 0.00 | 0.00 | 56 | 999.4 |